Time,TemperatureF,DewpointF,PressureIn,WindDirection,WindDirectionDegrees,WindSpeedMPH,WindSpeedGustMPH,Humidity,HourlyPrecipIn,Conditions,Clouds,dailyrainin,SoftwareType,DateUTC
2013-03-13 00:07:00,42.5,31.0,29.97,NW,304,3.0,7.0,63,0.00,,,0.80,weatherlink.com 1.10,2013-03-13 04:07:00,
2013-03-13 00:22:00,42.2,31.0,29.96,NNW,342,1.0,3.0,64,0.00,,,0.80,weatherlink.com 1.10,2013-03-13 04:22:00,
2013-03-13 00:37:00,41.6,31.0,29.97,NE,44,0.0,5.0,65,0.00,,,0.00,weatherlink.com 1.10,2013-03-13 04:37:00,
2013-03-13 00:52:00,41.0,30.0,29.97,NW,311,0.0,2.0,66,0.00,,,0.00,weatherlink.com 1.10,2013-03-13 04:52:00,
2013-03-13 01:07:00,40.4,31.0,29.97,NW,320,1.0,3.0,68,0.00,,,0.00,weatherlink.com 1.10,2013-03-13 05:07:00,
2013-03-13 01:22:00,39.7,31.0,29.98,NW,316,1.0,4.0,70,0.00,,,0.00,weatherlink.com 1.10,2013-03-13 05:22:00,
2013-03-13 01:37:00,39.4,30.0,29.98,NW,304,1.0,4.0,70,0.00,,,0.00,weatherlink.com 1.10,2013-03-13 05:37:00,
2013-03-13 01:52:00,39.1,30.0,29.98,NNE,32,0.0,2.0,71,0.00,,,0.00,weatherlink.com 1.10,2013-03-13 05:52:00,
2013-03-13 02:07:00,38.8,30.0,29.98,NNE,32,1.0,1.0,72,0.00,,,0.00,weatherlink.com 1.10,2013-03-13 06:07:00,
2013-03-13 02:22:00,38.2,30.0,29.99,NNE,15,0.0,2.0,72,0.00,,,0.00,weatherlink.com 1.10,2013-03-13 06:22:00,
2013-03-13 02:37:00,37.9,30.0,29.98,NNE,15,0.0,1.0,73,0.00,,,0.00,weatherlink.com 1.10,2013-03-13 06:37:00,
2013-03-13 02:52:00,37.7,30.0,29.98,NNE,15,0.0,0.0,74,0.00,,,0.00,weatherlink.com 1.10,2013-03-13 06:52:00,
2013-03-13 03:07:00,37.1,29.0,29.99,NNE,15,0.0,0.0,73,0.00,,,0.00,weatherlink.com 1.10,2013-03-13 07:07:00,
2013-03-13 03:22:00,36.5,29.0,29.98,NNE,15,0.0,0.0,74,0.00,,,0.00,weatherlink.com 1.10,2013-03-13 07:22:00,
2013-03-13 03:37:00,36.3,29.0,29.98,NNE,15,0.0,0.0,76,0.00,,,0.00,weatherlink.com 1.10,2013-03-13 07:37:00,
2013-03-13 03:52:00,36.0,29.0,29.98,NNE,15,0.0,0.0,76,0.00,,,0.00,weatherlink.com 1.10,2013-03-13 07:52:00,
2013-03-13 04:22:00,35.5,29.0,29.98,East,88,1.0,3.0,78,0.00,,,0.00,weatherlink.com 1.10,2013-03-13 08:22:00,
2013-03-13 04:37:00,35.2,29.0,29.98,East,88,0.0,0.0,78,0.00,,,0.00,weatherlink.com 1.10,2013-03-13 08:37:00,
2013-03-13 05:07:00,34.7,29.0,29.98,ESE,115,2.0,3.0,80,0.00,,,0.00,weatherlink.com 1.10,2013-03-13 09:07:00,
2013-03-13 05:22:00,34.6,29.0,30.00,ESE,116,0.0,2.0,80,0.00,,,0.00,weatherlink.com 1.10,2013-03-13 09:22:00,
2013-03-13 05:38:00,34.2,29.0,30.00,SE,138,1.0,4.0,81,0.00,,,0.00,weatherlink.com 1.10,2013-03-13 09:38:00,
2013-03-13 05:52:00,34.1,28.0,30.01,SSW,205,0.0,2.0,79,0.00,,,0.00,weatherlink.com 1.10,2013-03-13 09:52:00,
2013-03-13 06:08:00,34.4,29.0,30.01,NW,323,0.0,3.0,79,0.00,,,0.00,weatherlink.com 1.10,2013-03-13 10:08:00,
2013-03-13 06:23:00,34.6,27.0,30.01,WNW,293,1.0,3.0,75,0.00,,,0.00,weatherlink.com 1.10,2013-03-13 10:23:00,
2013-03-13 06:38:00,34.3,27.0,30.02,WNW,293,0.0,1.0,74,0.00,,,0.00,weatherlink.com 1.10,2013-03-13 10:38:00,
2013-03-13 06:53:00,34.4,27.0,30.02,WNW,293,0.0,1.0,73,0.00,,,0.00,weatherlink.com 1.10,2013-03-13 10:53:00,
2013-03-13 07:08:00,34.4,26.0,30.03,SSE,159,0.0,1.0,70,0.00,,,0.00,weatherlink.com 1.10,2013-03-13 11:08:00,
2013-03-13 07:23:00,34.6,26.0,30.03,SSE,159,0.0,0.0,70,0.00,,,0.00,weatherlink.com 1.10,2013-03-13 11:23:00,
2013-03-13 07:38:00,34.5,25.0,30.03,SSE,159,0.0,2.0,68,0.00,,,0.00,weatherlink.com 1.10,2013-03-13 11:38:00,
2013-03-13 07:53:00,34.3,26.0,30.03,SSE,159,0.0,0.0,71,0.00,,,0.00,weatherlink.com 1.10,2013-03-13 11:53:00,
2013-03-13 08:08:00,33.7,25.0,30.04,SSE,159,0.0,1.0,71,0.00,,,0.00,weatherlink.com 1.10,2013-03-13 12:08:00,
2013-03-13 08:23:00,33.6,25.0,30.04,SSE,162,0.0,2.0,70,0.00,,,0.00,weatherlink.com 1.10,2013-03-13 12:23:00,
2013-03-13 08:38:00,34.8,25.0,30.03,SW,223,0.0,1.0,68,0.00,,,0.00,weatherlink.com 1.10,2013-03-13 12:38:00,
2013-03-13 08:53:00,36.0,25.0,30.03,West,271,1.0,3.0,64,0.00,,,0.00,weatherlink.com 1.10,2013-03-13 12:53:00,
2013-03-13 09:08:00,38.7,26.0,30.04,WSW,257,3.0,4.0,61,0.00,,,0.00,weatherlink.com 1.10,2013-03-13 13:08:00,
2013-03-13 09:23:00,40.8,26.0,30.04,NW,307,2.0,4.0,57,0.00,,,0.00,weatherlink.com 1.10,2013-03-13 13:23:00,
2013-03-13 09:38:00,42.0,26.0,30.04,SW,236,0.0,8.0,54,0.00,,,0.00,weatherlink.com 1.10,2013-03-13 13:38:00,
2013-03-13 10:08:00,44.7,25.0,30.04,NNW,331,5.0,8.0,46,0.00,,,0.00,weatherlink.com 1.10,2013-03-13 14:08:00,
2013-03-13 10:23:00,45.9,25.0,30.04,WNW,292,5.0,11.0,45,0.00,,,0.00,weatherlink.com 1.10,2013-03-13 14:23:00,
2013-03-13 10:38:00,46.9,25.0,30.04,WNW,294,7.0,12.0,43,0.00,,,0.00,weatherlink.com 1.10,2013-03-13 14:38:00,
2013-03-13 10:53:00,47.4,26.0,30.04,West,267,3.0,11.0,43,0.00,,,0.00,weatherlink.com 1.10,2013-03-13 14:53:00,
2013-03-13 11:08:00,48.1,24.0,30.04,NW,323,4.0,15.0,39,0.00,,,0.00,weatherlink.com 1.10,2013-03-13 15:08:00,
2013-03-13 11:23:00,47.7,25.0,30.03,NW,318,4.0,10.0,41,0.00,,,0.00,weatherlink.com 1.10,2013-03-13 15:23:00,
2013-03-13 11:38:00,49.4,25.0,30.03,SW,230,5.0,21.0,38,0.00,,,0.00,weatherlink.com 1.10,2013-03-13 15:38:00,
2013-03-13 11:53:00,49.5,23.0,30.02,SSW,203,3.0,13.0,36,0.00,,,0.00,weatherlink.com 1.10,2013-03-13 15:53:00,
2013-03-13 12:08:00,48.4,24.0,30.02,West,274,2.0,9.0,39,0.00,,,0.00,weatherlink.com 1.10,2013-03-13 16:08:00,
2013-03-13 12:23:00,48.1,24.0,30.02,SW,215,7.0,13.0,39,0.00,,,0.00,weatherlink.com 1.10,2013-03-13 16:23:00,
2013-03-13 12:38:00,48.6,26.0,30.02,NW,304,2.0,9.0,42,0.00,,,0.00,weatherlink.com 1.10,2013-03-13 16:38:00,
2013-03-13 12:53:00,47.8,25.0,30.02,NW,308,5.0,9.0,41,0.00,,,0.00,weatherlink.com 1.10,2013-03-13 16:53:00,
2013-03-13 13:08:00,46.0,29.0,30.02,WNW,298,4.0,12.0,51,0.00,,,0.00,weatherlink.com 1.10,2013-03-13 17:08:00,
2013-03-13 13:23:00,45.5,30.0,30.02,NNW,348,6.0,14.0,54,0.00,,,0.00,weatherlink.com 1.10,2013-03-13 17:23:00,
2013-03-13 13:38:00,46.7,29.0,30.01,WNW,303,3.0,6.0,51,0.00,,,0.00,weatherlink.com 1.10,2013-03-13 17:38:00,
2013-03-13 13:53:00,50.4,28.0,30.00,WNW,288,4.0,9.0,43,0.00,,,0.00,weatherlink.com 1.10,2013-03-13 17:53:00,
2013-03-13 14:08:00,49.8,26.0,29.99,WNW,283,6.0,10.0,40,0.00,,,0.00,weatherlink.com 1.10,2013-03-13 18:08:00,
2013-03-13 14:23:00,50.3,27.0,29.98,WNW,292,4.0,12.0,40,0.00,,,0.00,weatherlink.com 1.10,2013-03-13 18:23:00,
2013-03-13 14:38:00,51.3,24.0,29.98,WSW,257,11.0,15.0,35,0.00,,,0.00,weatherlink.com 1.10,2013-03-13 18:38:00,
2013-03-13 14:53:00,51.5,25.0,29.98,West,275,7.0,13.0,36,0.00,,,0.00,weatherlink.com 1.10,2013-03-13 18:53:00,
2013-03-13 15:23:00,48.8,25.0,29.98,WNW,298,7.0,14.0,39,0.00,,,0.00,weatherlink.com 1.10,2013-03-13 19:23:00,
2013-03-13 15:38:00,49.7,25.0,29.98,NW,326,8.0,12.0,39,0.00,,,0.00,weatherlink.com 1.10,2013-03-13 19:38:00,
2013-03-13 15:53:00,49.4,24.0,29.98,WNW,286,7.0,11.0,37,0.00,,,0.00,weatherlink.com 1.10,2013-03-13 19:53:00,
2013-03-13 16:08:00,49.4,24.0,29.99,West,267,5.0,19.0,37,0.00,,,0.00,weatherlink.com 1.10,2013-03-13 20:08:00,
2013-03-13 16:23:00,50.1,21.0,30.00,WNW,292,7.0,13.0,32,0.00,,,0.00,weatherlink.com 1.10,2013-03-13 20:23:00,
2013-03-13 16:39:00,49.6,21.0,30.00,West,279,6.0,18.0,33,0.00,,,0.00,weatherlink.com 1.10,2013-03-13 20:39:00,
2013-03-13 16:54:00,50.1,23.0,30.01,NNW,331,7.0,14.0,35,0.00,,,0.00,weatherlink.com 1.10,2013-03-13 20:54:00,
2013-03-13 17:09:00,49.2,20.0,30.02,West,271,10.0,18.0,31,0.00,,,0.00,weatherlink.com 1.10,2013-03-13 21:09:00,
2013-03-13 17:24:00,49.7,21.0,30.03,SW,217,4.0,16.0,32,0.00,,,0.00,weatherlink.com 1.10,2013-03-13 21:24:00,
2013-03-13 17:39:00,48.5,21.0,30.04,SSE,147,6.0,15.0,34,0.00,,,0.00,weatherlink.com 1.10,2013-03-13 21:39:00,
2013-03-13 17:54:00,47.2,21.0,30.05,West,264,3.0,15.0,35,0.00,,,0.00,weatherlink.com 1.10,2013-03-13 21:54:00,
2013-03-13 18:09:00,46.5,23.0,30.06,WSW,238,1.0,15.0,39,0.00,,,0.00,weatherlink.com 1.10,2013-03-13 22:09:00,
2013-03-13 18:24:00,45.0,21.0,30.06,WNW,295,5.0,15.0,38,0.00,,,0.00,weatherlink.com 1.10,2013-03-13 22:24:00,
2013-03-13 18:39:00,44.1,20.0,30.06,WNW,292,5.0,9.0,39,0.00,,,0.00,weatherlink.com 1.10,2013-03-13 22:39:00,
2013-03-13 18:54:00,43.4,20.0,30.08,WSW,244,8.0,11.0,40,0.00,,,0.00,weatherlink.com 1.10,2013-03-13 22:54:00,
2013-03-13 19:09:00,42.2,22.0,30.08,NW,315,6.0,7.0,44,0.00,,,0.00,weatherlink.com 1.10,2013-03-13 23:09:00,
2013-03-13 19:24:00,41.1,21.0,30.08,NW,313,5.0,11.0,45,0.00,,,0.00,weatherlink.com 1.10,2013-03-13 23:24:00,
2013-03-13 19:39:00,40.2,21.0,30.09,NNW,329,4.0,11.0,47,0.00,,,0.00,weatherlink.com 1.10,2013-03-13 23:39:00,
2013-03-13 19:54:00,39.6,21.0,30.10,NW,308,1.0,10.0,47,0.00,,,0.00,weatherlink.com 1.10,2013-03-13 23:54:00,
2013-03-13 20:09:00,39.3,20.0,30.10,NW,309,4.0,13.0,46,0.00,,,0.00,weatherlink.com 1.10,2013-03-14 00:09:00,
2013-03-13 20:24:00,38.6,20.0,30.11,NW,320,6.0,14.0,48,0.00,,,0.00,weatherlink.com 1.10,2013-03-14 00:24:00,
2013-03-13 20:39:00,37.8,20.0,30.12,WNW,302,3.0,12.0,49,0.00,,,0.00,weatherlink.com 1.10,2013-03-14 00:39:00,
2013-03-13 20:54:00,37.2,20.0,30.13,NW,324,11.0,11.0,50,0.00,,,0.00,weatherlink.com 1.10,2013-03-14 00:54:00,
2013-03-13 21:09:00,36.6,19.0,30.14,WNW,300,5.0,8.0,50,0.00,,,0.00,weatherlink.com 1.10,2013-03-14 01:09:00,
2013-03-13 21:24:00,35.9,20.0,30.14,WNW,296,5.0,8.0,52,0.00,,,0.00,weatherlink.com 1.10,2013-03-14 01:24:00,
2013-03-13 21:39:00,35.4,21.0,30.15,NW,317,3.0,8.0,56,0.00,,,0.00,weatherlink.com 1.10,2013-03-14 01:39:00,
2013-03-13 21:54:00,35.1,18.0,30.15,WNW,301,3.0,14.0,50,0.00,,,0.00,weatherlink.com 1.10,2013-03-14 01:54:00,
2013-03-13 22:09:00,34.7,17.0,30.16,NNW,348,6.0,14.0,48,0.00,,,0.00,weatherlink.com 1.10,2013-03-14 02:09:00,
2013-03-13 22:24:00,34.5,16.0,30.16,WNW,287,6.0,15.0,48,0.00,,,0.00,weatherlink.com 1.10,2013-03-14 02:24:00,
2013-03-13 22:39:00,34.4,16.0,30.17,NW,325,3.0,11.0,48,0.00,,,0.00,weatherlink.com 1.10,2013-03-14 02:39:00,
2013-03-13 22:54:00,34.2,16.0,30.17,NW,309,5.0,9.0,48,0.00,,,0.00,weatherlink.com 1.10,2013-03-14 02:54:00,
2013-03-13 23:09:00,33.8,16.0,30.16,NW,313,2.0,7.0,49,0.00,,,0.00,weatherlink.com 1.10,2013-03-14 03:09:00,
2013-03-13 23:39:00,33.1,17.0,30.17,WSW,248,4.0,6.0,52,0.00,,,0.00,weatherlink.com 1.10,2013-03-14 03:39:00,
2013-03-13 23:54:00,33.1,17.0,30.17,WNW,294,2.0,10.0,51,0.00,,,0.00,weatherlink.com 1.10,2013-03-14 03:54:00,